Time,TemperatureF,DewpointF,PressureIn,WindDirection,WindDirectionDegrees,WindSpeedMPH,WindSpeedGustMPH,Humidity,HourlyPrecipIn,Conditions,Clouds,dailyrainin,SoftwareType,DateUTC
2013-10-12 00:04:00,63.0,57.0,30.08,NW,315,0.0,0.0,81,0.00,,,0.00,,2013-10-12 04:04:00,
2013-10-12 00:14:00,63.0,57.0,30.08,NW,315,0.0,0.0,81,0.00,,,0.00,,2013-10-12 04:14:00,
2013-10-12 00:24:00,63.0,57.0,30.07,NW,315,0.0,1.0,81,0.00,,,0.00,,2013-10-12 04:24:00,
2013-10-12 00:33:00,63.0,57.0,30.07,NW,315,0.0,1.0,81,0.00,,,0.00,,2013-10-12 04:33:00,
2013-10-12 00:44:00,63.0,57.0,30.07,NW,315,0.0,1.0,81,0.00,,,0.00,,2013-10-12 04:44:00,
2013-10-12 00:54:00,62.0,57.0,30.07,NW,315,0.0,1.0,83,0.00,,,0.00,,2013-10-12 04:54:00,
2013-10-12 01:03:00,62.0,57.0,30.07,NW,315,0.0,1.0,83,0.00,,,0.00,,2013-10-12 05:03:00,
2013-10-12 01:13:00,62.0,57.0,30.07,NW,315,0.0,1.0,83,0.00,,,0.00,,2013-10-12 05:13:00,
2013-10-12 01:23:00,61.0,56.0,30.06,NW,315,0.0,0.0,84,0.00,,,0.00,,2013-10-12 05:23:00,
2013-10-12 01:34:00,61.0,56.0,30.06,NW,315,0.0,0.0,84,0.00,,,0.00,,2013-10-12 05:34:00,
2013-10-12 01:43:00,61.0,56.0,30.06,NW,315,0.0,0.0,84,0.00,,,0.00,,2013-10-12 05:43:00,
2013-10-12 01:52:00,61.0,56.0,30.06,NW,315,0.0,0.0,85,0.00,,,0.00,,2013-10-12 05:52:00,
2013-10-12 02:02:00,61.0,56.0,30.06,NW,315,0.0,0.0,85,0.00,,,0.00,,2013-10-12 06:02:00,
2013-10-12 02:12:00,61.0,56.0,30.06,NW,315,0.0,0.0,85,0.00,,,0.00,,2013-10-12 06:12:00,
2013-10-12 02:22:00,60.0,56.0,30.07,NW,315,0.0,0.0,87,0.00,,,0.00,,2013-10-12 06:22:00,
2013-10-12 02:32:00,60.0,56.0,30.07,NW,315,0.0,0.0,87,0.00,,,0.00,,2013-10-12 06:32:00,
2013-10-12 02:42:00,60.0,56.0,30.07,NW,315,0.0,0.0,87,0.00,,,0.00,,2013-10-12 06:42:00,
2013-10-12 02:52:00,60.0,56.0,30.07,NW,315,0.0,0.0,88,0.00,,,0.00,,2013-10-12 06:52:00,
2013-10-12 03:03:00,60.0,56.0,30.07,NW,315,0.0,0.0,88,0.00,,,0.00,,2013-10-12 07:03:00,
2013-10-12 03:12:00,60.0,56.0,30.07,NW,315,0.0,0.0,88,0.00,,,0.00,,2013-10-12 07:12:00,
2013-10-12 03:22:00,60.0,56.0,30.07,NW,315,0.0,0.0,88,0.00,,,0.00,,2013-10-12 07:22:00,
2013-10-12 03:32:00,60.0,56.0,30.07,NW,315,0.0,0.0,88,0.00,,,0.00,,2013-10-12 07:32:00,
2013-10-12 03:42:00,60.0,56.0,30.07,NW,315,0.0,0.0,88,0.00,,,0.00,,2013-10-12 07:42:00,
2013-10-12 03:52:00,59.0,56.0,30.07,NW,315,0.0,0.0,89,0.00,,,0.00,,2013-10-12 07:52:00,
2013-10-12 04:02:00,59.0,56.0,30.07,NW,315,0.0,0.0,89,0.00,,,0.00,,2013-10-12 08:02:00,
2013-10-12 04:12:00,59.0,56.0,30.07,NW,315,0.0,0.0,89,0.00,,,0.00,,2013-10-12 08:12:00,
2013-10-12 04:22:00,59.0,56.0,30.08,NW,315,0.0,1.0,89,0.00,,,0.00,,2013-10-12 08:22:00,
2013-10-12 04:32:00,59.0,56.0,30.08,NW,315,0.0,1.0,89,0.00,,,0.00,,2013-10-12 08:32:00,
2013-10-12 04:52:00,59.0,56.0,30.07,NW,315,0.0,1.0,90,0.00,,,0.00,,2013-10-12 08:52:00,
2013-10-12 05:02:00,59.0,56.0,30.07,NW,315,0.0,1.0,90,0.00,,,0.00,,2013-10-12 09:02:00,
2013-10-12 05:22:00,58.0,55.0,30.08,NW,315,0.0,1.0,91,0.00,,,0.00,,2013-10-12 09:22:00,
2013-10-12 05:33:00,58.0,55.0,30.08,NW,315,0.0,1.0,91,0.00,,,0.00,,2013-10-12 09:33:00,
2013-10-12 05:54:00,58.0,55.0,30.07,NW,315,0.0,0.0,91,0.00,,,0.00,,2013-10-12 09:54:00,
2013-10-12 06:03:00,58.0,55.0,30.07,NW,315,0.0,0.0,91,0.00,,,0.00,,2013-10-12 10:03:00,
2013-10-12 06:12:00,58.0,55.0,30.07,NW,315,0.0,0.0,91,0.00,,,0.00,,2013-10-12 10:12:00,
2013-10-12 06:23:00,57.0,55.0,30.08,NW,315,0.0,0.0,92,0.00,,,0.00,,2013-10-12 10:23:00,
2013-10-12 06:32:00,57.0,55.0,30.08,NW,315,0.0,0.0,92,0.00,,,0.00,,2013-10-12 10:32:00,
2013-10-12 06:42:00,57.0,55.0,30.08,NW,315,0.0,0.0,92,0.00,,,0.00,,2013-10-12 10:42:00,
2013-10-12 06:53:00,57.0,55.0,30.09,NW,315,0.0,0.0,93,0.00,,,0.00,,2013-10-12 10:53:00,
2013-10-12 07:02:00,57.0,55.0,30.09,NW,315,0.0,0.0,93,0.00,,,0.00,,2013-10-12 11:02:00,
2013-10-12 07:12:00,57.0,55.0,30.09,NW,315,0.0,0.0,93,0.00,,,0.00,,2013-10-12 11:12:00,
2013-10-12 07:22:00,57.0,55.0,30.09,NW,315,0.0,0.0,93,0.00,,,0.00,,2013-10-12 11:22:00,
2013-10-12 07:33:00,57.0,55.0,30.09,NW,315,0.0,0.0,93,0.00,,,0.00,,2013-10-12 11:33:00,
2013-10-12 07:52:00,58.0,56.0,30.10,NW,315,0.0,1.0,92,0.00,,,0.00,,2013-10-12 11:52:00,
2013-10-12 08:01:00,58.0,56.0,30.10,NW,315,0.0,1.0,92,0.00,,,0.00,,2013-10-12 12:01:00,
2013-10-12 08:11:00,58.0,56.0,30.10,NW,315,0.0,1.0,92,0.00,,,0.00,,2013-10-12 12:11:00,
2013-10-12 08:22:00,57.0,55.0,30.11,NW,315,0.0,1.0,92,0.00,,,0.00,,2013-10-12 12:22:00,
2013-10-12 08:32:00,57.0,55.0,30.11,NW,315,0.0,1.0,92,0.00,,,0.00,,2013-10-12 12:32:00,
2013-10-12 08:52:00,57.0,55.0,30.11,NW,315,0.0,1.0,92,0.00,,,0.00,,2013-10-12 12:52:00,
2013-10-12 09:52:00,63.0,58.0,30.14,NW,315,0.0,1.0,84,0.00,,,0.00,,2013-10-12 13:52:00,
2013-10-12 10:02:00,63.0,58.0,30.14,NW,315,0.0,1.0,84,0.00,,,0.00,,2013-10-12 14:02:00,
2013-10-12 10:12:00,63.0,58.0,30.14,NW,315,0.0,1.0,84,0.00,,,0.00,,2013-10-12 14:12:00,
2013-10-12 10:21:00,63.0,58.0,30.14,NW,315,0.0,1.0,84,0.00,,,0.00,,2013-10-12 14:21:00,
2013-10-12 10:32:00,63.0,58.0,30.14,NW,315,0.0,1.0,84,0.00,,,0.00,,2013-10-12 14:32:00,
2013-10-12 21:22:00,66.0,58.0,30.13,NNW,344,0.0,0.0,75,0.00,,,0.00,,2013-10-13 01:22:00,
2013-10-12 21:32:00,66.0,58.0,30.13,NNW,344,0.0,0.0,75,0.00,,,0.00,,2013-10-13 01:32:00,
2013-10-12 21:42:00,66.0,58.0,30.13,NNW,344,0.0,0.0,75,0.00,,,0.00,,2013-10-13 01:42:00,
2013-10-12 21:52:00,66.0,58.0,30.13,NNW,344,0.0,0.0,75,0.00,,,0.00,,2013-10-13 01:52:00,
2013-10-12 22:02:00,66.0,58.0,30.13,NNW,344,0.0,0.0,75,0.00,,,0.00,,2013-10-13 02:02:00,
2013-10-12 22:52:00,64.0,58.0,30.15,NNW,344,0.0,0.0,80,0.00,,,0.00,,2013-10-13 02:52:00,
2013-10-12 23:03:00,64.0,58.0,30.15,NNW,344,0.0,0.0,80,0.00,,,0.00,,2013-10-13 03:03:00,
2013-10-12 23:12:00,64.0,58.0,30.15,NNW,344,0.0,0.0,80,0.00,,,0.00,,2013-10-13 03:12:00,
2013-10-12 23:23:00,63.0,57.0,30.16,NNW,344,0.0,0.0,81,0.00,,,0.00,,2013-10-13 03:23:00,
2013-10-12 23:34:00,63.0,57.0,30.16,NNW,344,0.0,0.0,81,0.00,,,0.00,,2013-10-13 03:34:00,
2013-10-12 23:45:00,63.0,57.0,30.16,NNW,344,0.0,0.0,81,0.00,,,0.00,,2013-10-13 03:45:00,
2013-10-12 23:54:00,63.0,58.0,30.17,NNW,344,0.0,0.0,83,0.00,,,0.00,,2013-10-13 03:54:00,